Time,TemperatureF,DewpointF,PressureIn,WindDirection,WindDirectionDegrees,WindSpeedMPH,WindSpeedGustMPH,Humidity,HourlyPrecipIn,Conditions,Clouds,dailyrainin,SolarRadiationWatts/m^2,SoftwareType,DateUTC
2013-10-11 00:01:00,75.7,69.4,29.97,NNE,26,1.0,4.0,81,0.00,,,0.00,0.0,meteohub,2013-10-11 04:01:00,
2013-10-11 00:02:00,75.7,69.4,29.97,NNE,26,0.0,4.0,81,0.00,,,0.00,0.0,meteohub,2013-10-11 04:02:00,
2013-10-11 00:07:00,75.7,69.8,29.97,NNE,26,2.0,4.0,82,0.00,,,0.00,0.0,meteohub,2013-10-11 04:07:00,
2013-10-11 00:12:00,75.6,69.6,29.96,NNE,26,1.0,3.0,82,0.00,,,0.00,0.0,meteohub,2013-10-11 04:12:00,
2013-10-11 00:17:00,75.6,69.6,29.96,NNE,26,0.0,3.0,82,0.00,,,0.00,0.0,meteohub,2013-10-11 04:17:00,
2013-10-11 00:22:00,75.2,69.6,29.96,NNE,26,3.0,3.0,83,0.00,,,0.00,0.0,meteohub,2013-10-11 04:22:00,
2013-10-11 00:27:00,75.0,69.8,29.96,NNE,26,1.0,3.0,84,0.00,,,0.00,0.0,meteohub,2013-10-11 04:27:00,
2013-10-11 00:32:00,74.7,69.8,29.96,NNE,26,1.0,3.0,85,0.00,,,0.00,0.0,meteohub,2013-10-11 04:32:00,
2013-10-11 00:38:00,74.3,69.8,29.96,NNE,26,0.0,3.0,86,0.00,,,0.00,0.0,meteohub,2013-10-11 04:38:00,
2013-10-11 00:43:00,74.1,70.0,29.96,NNE,26,0.0,2.0,87,0.00,,,0.00,0.0,meteohub,2013-10-11 04:43:00,
2013-10-11 00:48:00,73.8,70.0,29.96,NNE,26,0.0,2.0,88,0.00,,,0.00,0.0,meteohub,2013-10-11 04:48:00,
2013-10-11 00:53:00,73.6,69.8,29.96,NNE,26,1.0,0.0,88,0.00,,,0.00,0.0,meteohub,2013-10-11 04:53:00,
2013-10-11 00:58:00,73.6,70.2,29.96,NNE,26,0.0,2.0,89,0.00,,,0.00,0.0,meteohub,2013-10-11 04:58:00,
2013-10-11 01:03:00,73.4,70.3,29.95,NNE,26,0.0,2.0,90,0.00,,,0.00,0.0,meteohub,2013-10-11 05:03:00,
2013-10-11 01:08:00,73.2,70.2,29.96,NNE,26,0.0,1.0,90,0.00,,,0.00,0.0,meteohub,2013-10-11 05:08:00,
2013-10-11 01:13:00,72.9,69.8,29.95,NNE,26,0.0,0.0,90,0.00,,,0.00,0.0,meteohub,2013-10-11 05:13:00,
2013-10-11 01:18:00,72.5,69.4,29.95,NNE,26,0.0,0.0,90,0.00,,,0.00,0.0,meteohub,2013-10-11 05:18:00,
2013-10-11 01:23:00,72.5,69.8,29.95,NNE,26,0.0,0.0,91,0.00,,,0.00,0.0,meteohub,2013-10-11 05:23:00,
2013-10-11 01:28:00,72.5,69.8,29.95,NNE,26,0.0,0.0,91,0.00,,,0.00,0.0,meteohub,2013-10-11 05:28:00,
2013-10-11 01:33:00,72.3,69.6,29.95,NNE,26,2.0,2.0,91,0.00,,,0.00,0.0,meteohub,2013-10-11 05:33:00,
2013-10-11 01:38:00,72.5,69.8,29.95,NNE,26,1.0,3.0,91,0.00,,,0.00,0.0,meteohub,2013-10-11 05:38:00,
2013-10-11 01:43:00,72.3,69.6,29.95,NNE,26,1.0,3.0,91,0.00,,,0.00,0.0,meteohub,2013-10-11 05:43:00,
2013-10-11 01:48:00,72.3,69.8,29.95,NNE,26,0.0,3.0,92,0.00,,,0.00,0.0,meteohub,2013-10-11 05:48:00,
2013-10-11 01:53:00,72.3,69.8,29.95,NNE,26,0.0,2.0,92,0.00,,,0.00,0.0,meteohub,2013-10-11 05:53:00,
2013-10-11 01:58:00,72.1,69.6,29.95,NNE,26,1.0,2.0,92,0.00,,,0.00,0.0,meteohub,2013-10-11 05:58:00,
2013-10-11 02:03:00,72.1,69.6,29.95,NNE,26,0.0,2.0,92,0.00,,,0.00,0.0,meteohub,2013-10-11 06:03:00,
2013-10-11 02:08:00,72.0,69.4,29.95,NNE,26,0.0,1.0,92,0.00,,,0.00,0.0,meteohub,2013-10-11 06:08:00,
2013-10-11 02:13:00,71.8,69.3,29.94,NNE,26,0.0,1.0,92,0.00,,,0.00,0.0,meteohub,2013-10-11 06:13:00,
2013-10-11 02:18:00,71.4,68.9,29.94,NNE,26,0.0,0.0,92,0.00,,,0.00,0.0,meteohub,2013-10-11 06:18:00,
2013-10-11 02:24:00,71.2,68.7,29.94,NNE,26,0.0,0.0,92,0.00,,,0.00,0.0,meteohub,2013-10-11 06:24:00,
2013-10-11 02:30:00,71.2,69.1,29.94,NNE,26,1.0,0.0,93,0.00,,,0.00,0.0,meteohub,2013-10-11 06:30:00,
2013-10-11 02:35:00,71.2,69.1,29.94,NNE,26,0.0,2.0,93,0.00,,,0.00,0.0,meteohub,2013-10-11 06:35:00,
2013-10-11 02:40:00,71.1,69.3,29.94,NNE,26,0.0,2.0,94,0.00,,,0.00,0.0,meteohub,2013-10-11 06:40:00,
2013-10-11 02:45:00,71.1,69.3,29.94,NNE,26,0.0,2.0,94,0.00,,,0.00,0.0,meteohub,2013-10-11 06:45:00,
2013-10-11 02:50:00,71.1,69.3,29.94,NNE,26,0.0,1.0,94,0.00,,,0.00,0.0,meteohub,2013-10-11 06:50:00,
2013-10-11 02:55:00,71.2,69.4,29.94,NNE,26,1.0,2.0,94,0.00,,,0.00,0.0,meteohub,2013-10-11 06:55:00,
2013-10-11 03:00:00,71.2,69.4,29.94,NNE,26,0.0,2.0,94,0.00,,,0.00,0.0,meteohub,2013-10-11 07:00:00,
2013-10-11 03:06:00,71.2,69.4,29.94,NNE,26,1.0,2.0,94,0.00,,,0.00,0.0,meteohub,2013-10-11 07:06:00,
2013-10-11 03:11:00,71.2,69.4,29.94,NNE,26,2.0,2.0,94,0.00,,,0.00,0.0,meteohub,2013-10-11 07:11:00,
2013-10-11 03:16:00,71.2,69.4,29.94,NNE,26,0.0,2.0,94,0.00,,,0.00,0.0,meteohub,2013-10-11 07:16:00,
2013-10-11 03:21:00,71.2,69.8,29.94,NNE,26,0.0,2.0,95,0.00,,,0.00,0.0,meteohub,2013-10-11 07:21:00,
2013-10-11 03:26:00,71.2,69.8,29.94,NNE,26,1.0,2.0,95,0.00,,,0.00,0.0,meteohub,2013-10-11 07:26:00,
2013-10-11 03:31:00,71.1,69.6,29.94,NNE,26,0.0,2.0,95,0.00,,,0.00,0.0,meteohub,2013-10-11 07:31:00,
2013-10-11 03:36:00,71.1,69.6,29.94,NNE,26,0.0,1.0,95,0.00,,,0.00,0.0,meteohub,2013-10-11 07:36:00,
2013-10-11 03:41:00,71.1,69.6,29.94,NNE,26,2.0,2.0,95,0.00,,,0.00,0.0,meteohub,2013-10-11 07:41:00,
2013-10-11 03:46:00,71.2,69.8,29.94,NNE,26,2.0,2.0,95,0.00,,,0.00,0.0,meteohub,2013-10-11 07:46:00,
2013-10-11 03:51:00,71.2,69.8,29.94,NNE,26,0.0,2.0,95,0.00,,,0.00,0.0,meteohub,2013-10-11 07:51:00,
2013-10-11 03:56:00,71.1,69.6,29.94,NNE,26,1.0,2.0,95,0.00,,,0.00,0.0,meteohub,2013-10-11 07:56:00,
2013-10-11 04:01:00,71.2,69.8,29.94,NNE,26,0.0,2.0,95,0.00,,,0.00,0.0,meteohub,2013-10-11 08:01:00,
2013-10-11 04:06:00,71.1,69.6,29.94,NNE,26,0.0,2.0,95,0.00,,,0.00,0.0,meteohub,2013-10-11 08:06:00,
2013-10-11 04:12:00,70.9,69.4,29.93,NNE,26,0.0,2.0,95,0.00,,,0.00,0.0,meteohub,2013-10-11 08:12:00,
2013-10-11 04:17:00,70.9,69.4,29.94,NNE,26,1.0,0.0,95,0.00,,,0.00,0.0,meteohub,2013-10-11 08:17:00,
2013-10-11 04:22:00,70.9,69.4,29.94,NNE,26,0.0,1.0,95,0.00,,,0.00,0.0,meteohub,2013-10-11 08:22:00,
2013-10-11 04:27:00,70.9,69.4,29.94,NNE,26,0.0,1.0,95,0.00,,,0.00,0.0,meteohub,2013-10-11 08:27:00,
2013-10-11 04:32:00,70.9,69.4,29.94,NNE,26,0.0,1.0,95,0.00,,,0.00,0.0,meteohub,2013-10-11 08:32:00,
2013-10-11 04:37:00,70.9,69.4,29.94,NNE,26,0.0,0.0,95,0.00,,,0.00,0.0,meteohub,2013-10-11 08:37:00,
2013-10-11 04:42:00,70.9,69.6,29.94,NNE,26,0.0,0.0,96,0.00,,,0.00,0.0,meteohub,2013-10-11 08:42:00,
2013-10-11 04:48:00,71.1,69.8,29.94,NNE,26,2.0,0.0,96,0.00,,,0.00,0.0,meteohub,2013-10-11 08:48:00,
2013-10-11 04:53:00,71.1,69.6,29.94,NNE,26,1.0,2.0,95,0.00,,,0.00,0.0,meteohub,2013-10-11 08:53:00,
2013-10-11 04:58:00,70.9,69.4,29.94,NNE,26,1.0,2.0,95,0.00,,,0.00,0.0,meteohub,2013-10-11 08:58:00,
2013-10-11 05:03:00,70.9,69.6,29.94,NNE,26,1.0,2.0,96,0.00,,,0.00,0.0,meteohub,2013-10-11 09:03:00,
2013-10-11 05:09:00,70.9,69.6,29.94,NNE,26,1.0,2.0,96,0.00,,,0.00,0.0,meteohub,2013-10-11 09:09:00,
2013-10-11 05:14:00,70.9,69.4,29.94,NNE,26,0.0,2.0,95,0.00,,,0.00,0.0,meteohub,2013-10-11 09:14:00,
2013-10-11 05:19:00,70.9,69.4,29.94,NNE,26,0.0,2.0,95,0.00,,,0.00,0.0,meteohub,2013-10-11 09:19:00,
2013-10-11 05:24:00,70.9,69.4,29.94,NNE,26,1.0,2.0,95,0.00,,,0.00,0.0,meteohub,2013-10-11 09:24:00,
2013-10-11 05:29:00,70.9,69.4,29.94,NNE,26,3.0,3.0,95,0.00,,,0.00,0.0,meteohub,2013-10-11 09:29:00,
2013-10-11 05:34:00,70.9,69.4,29.95,NNE,26,2.0,3.0,95,0.00,,,0.00,0.0,meteohub,2013-10-11 09:34:00,
2013-10-11 05:39:00,70.7,69.3,29.95,NNE,26,0.0,3.0,95,0.00,,,0.00,0.0,meteohub,2013-10-11 09:39:00,
2013-10-11 05:44:00,70.7,69.3,29.95,NNE,26,1.0,3.0,95,0.00,,,0.00,0.0,meteohub,2013-10-11 09:44:00,
2013-10-11 05:49:00,70.7,69.3,29.95,NNE,26,2.0,3.0,95,0.00,,,0.00,0.0,meteohub,2013-10-11 09:49:00,
2013-10-11 05:54:00,70.5,69.1,29.95,NNE,26,1.0,3.0,95,0.00,,,0.00,0.0,meteohub,2013-10-11 09:54:00,
2013-10-11 05:59:00,70.5,69.1,29.96,NNE,26,0.0,3.0,95,0.00,,,0.00,0.0,meteohub,2013-10-11 09:59:00,
2013-10-11 06:04:00,70.5,69.1,29.96,NNE,26,0.0,3.0,95,0.00,,,0.00,0.0,meteohub,2013-10-11 10:04:00,
2013-10-11 06:09:00,70.5,69.1,29.96,NNE,26,0.0,3.0,95,0.00,,,0.00,0.0,meteohub,2013-10-11 10:09:00,
2013-10-11 06:14:00,70.5,69.1,29.96,NNE,26,0.0,1.0,95,0.00,,,0.00,0.0,meteohub,2013-10-11 10:14:00,
2013-10-11 06:19:00,70.3,68.9,29.96,NNE,26,0.0,1.0,95,0.00,,,0.00,0.0,meteohub,2013-10-11 10:19:00,
2013-10-11 06:24:00,70.3,68.9,29.96,NNE,26,0.0,1.0,95,0.00,,,0.00,0.0,meteohub,2013-10-11 10:24:00,
2013-10-11 06:29:00,70.3,68.9,29.96,NNE,26,0.0,1.0,95,0.00,,,0.00,0.0,meteohub,2013-10-11 10:29:00,
2013-10-11 06:34:00,70.3,68.9,29.96,NNE,26,0.0,0.0,95,0.00,,,0.00,0.0,meteohub,2013-10-11 10:34:00,
2013-10-11 06:39:00,70.3,68.9,29.96,NNE,26,0.0,0.0,95,0.00,,,0.00,0.0,meteohub,2013-10-11 10:39:00,
2013-10-11 06:44:00,70.3,69.1,29.96,NNE,26,0.0,0.0,96,0.00,,,0.00,0.0,meteohub,2013-10-11 10:44:00,
2013-10-11 06:49:00,70.2,68.7,29.96,NNE,26,0.0,0.0,95,0.00,,,0.00,0.0,meteohub,2013-10-11 10:49:00,
2013-10-11 06:54:00,70.2,68.7,29.96,NNE,26,0.0,0.0,95,0.00,,,0.00,0.0,meteohub,2013-10-11 10:54:00,
2013-10-11 06:59:00,70.2,68.9,29.96,North,0,0.0,0.0,96,0.00,,,0.00,0.0,meteohub,2013-10-11 10:59:00,
2013-10-11 07:04:00,70.2,68.9,29.97,North,0,0.0,2.0,96,0.00,,,0.00,0.0,meteohub,2013-10-11 11:04:00,
2013-10-11 07:09:00,70.2,68.7,29.97,North,0,1.0,2.0,95,0.00,,,0.00,0.0,meteohub,2013-10-11 11:09:00,
2013-10-11 07:14:00,70.3,69.1,29.97,North,0,1.0,2.0,96,0.00,,,0.00,0.0,meteohub,2013-10-11 11:14:00,
2013-10-11 07:19:00,70.3,69.1,29.97,North,0,0.0,3.0,96,0.00,,,0.00,0.0,meteohub,2013-10-11 11:19:00,
2013-10-11 07:24:00,70.3,69.1,29.97,North,0,1.0,3.0,96,0.00,,,0.00,7.0,meteohub,2013-10-11 11:24:00,
2013-10-11 07:29:00,70.3,69.1,29.97,North,0,1.0,3.0,96,0.00,,,0.00,11.0,meteohub,2013-10-11 11:29:00,
2013-10-11 07:34:00,70.3,69.1,29.98,North,0,0.0,3.0,96,0.00,,,0.00,18.0,meteohub,2013-10-11 11:34:00,
2013-10-11 07:39:00,70.5,69.3,29.98,North,0,0.0,3.0,96,0.00,,,0.00,28.0,meteohub,2013-10-11 11:39:00,
2013-10-11 07:44:00,70.9,69.6,29.98,North,0,2.0,3.0,96,0.00,,,0.00,44.0,meteohub,2013-10-11 11:44:00,
2013-10-11 07:49:00,71.1,69.8,29.98,North,0,1.0,3.0,96,0.00,,,0.00,58.0,meteohub,2013-10-11 11:49:00,
2013-10-11 07:54:00,71.6,70.3,29.98,North,0,0.0,3.0,96,0.00,,,0.00,74.0,meteohub,2013-10-11 11:54:00,
2013-10-11 08:00:00,72.5,71.1,29.98,North,0,0.0,3.0,95,0.00,,,0.00,90.0,meteohub,2013-10-11 12:00:00,
2013-10-11 08:05:00,73.2,71.4,29.98,North,0,0.0,3.0,94,0.00,,,0.00,109.0,meteohub,2013-10-11 12:05:00,
2013-10-11 08:10:00,74.1,72.0,29.99,North,0,0.0,3.0,93,0.00,,,0.00,127.0,meteohub,2013-10-11 12:10:00,
2013-10-11 08:15:00,75.4,72.5,29.99,North,0,3.0,3.0,91,0.00,,,0.00,144.0,meteohub,2013-10-11 12:15:00,
2013-10-11 08:20:00,76.3,72.5,29.99,North,0,0.0,1.0,88,0.00,,,0.00,163.0,meteohub,2013-10-11 12:20:00,
2013-10-11 08:25:00,76.8,72.3,29.99,North,0,1.0,3.0,86,0.00,,,0.00,179.0,meteohub,2013-10-11 12:25:00,
2013-10-11 08:30:00,77.5,72.0,29.99,North,11,3.0,3.0,83,0.00,,,0.00,195.0,meteohub,2013-10-11 12:30:00,
2013-10-11 08:35:00,77.9,72.0,29.99,North,10,5.0,5.0,82,0.00,,,0.00,211.0,meteohub,2013-10-11 12:35:00,
2013-10-11 08:40:00,78.1,71.8,29.99,NNE,13,2.0,4.0,81,0.00,,,0.00,229.0,meteohub,2013-10-11 12:40:00,
2013-10-11 08:45:00,78.4,71.8,29.99,North,9,3.0,6.0,80,0.00,,,0.00,244.0,meteohub,2013-10-11 12:45:00,
2013-10-11 08:50:00,79.2,72.1,30.00,North,5,3.0,6.0,79,0.00,,,0.00,260.0,meteohub,2013-10-11 12:50:00,
2013-10-11 08:55:00,80.1,72.1,30.00,North,9,2.0,6.0,77,0.00,,,0.00,276.0,meteohub,2013-10-11 12:55:00,
2013-10-11 09:00:00,80.2,71.6,30.00,North,5,4.0,6.0,75,0.00,,,0.00,299.0,meteohub,2013-10-11 13:00:00,
2013-10-11 09:05:00,80.8,72.1,30.00,North,11,2.0,7.0,75,0.00,,,0.00,302.0,meteohub,2013-10-11 13:05:00,
2013-10-11 09:10:00,81.3,72.3,30.00,North,355,4.0,7.0,74,0.00,,,0.00,334.0,meteohub,2013-10-11 13:10:00,
2013-10-11 09:15:00,81.3,72.7,30.00,North,11,2.0,5.0,75,0.00,,,0.00,339.0,meteohub,2013-10-11 13:15:00,
2013-10-11 09:20:00,81.7,71.8,30.00,NE,37,4.0,6.0,72,0.00,,,0.00,355.0,meteohub,2013-10-11 13:20:00,
2013-10-11 09:25:00,82.0,71.8,30.00,NNE,18,1.0,6.0,71,0.00,,,0.00,374.0,meteohub,2013-10-11 13:25:00,
2013-10-11 09:30:00,82.0,71.8,30.00,ENE,66,2.0,6.0,71,0.00,,,0.00,390.0,meteohub,2013-10-11 13:30:00,
2013-10-11 09:35:00,82.2,71.4,30.00,NE,53,4.0,6.0,70,0.00,,,0.00,403.0,meteohub,2013-10-11 13:35:00,
2013-10-11 09:40:00,82.6,72.1,30.00,NNE,19,6.0,6.0,71,0.00,,,0.00,424.0,meteohub,2013-10-11 13:40:00,
2013-10-11 09:45:00,82.2,71.1,30.00,NE,42,5.0,8.0,69,0.00,,,0.00,439.0,meteohub,2013-10-11 13:45:00,
2013-10-11 09:50:00,82.6,71.4,30.00,NE,38,5.0,9.0,69,0.00,,,0.00,454.0,meteohub,2013-10-11 13:50:00,
2013-10-11 09:55:00,82.2,71.4,30.00,NE,47,4.0,9.0,70,0.00,,,0.00,466.0,meteohub,2013-10-11 13:55:00,
2013-10-11 10:00:00,83.7,72.0,30.00,NE,49,4.0,8.0,68,0.00,,,0.00,483.0,meteohub,2013-10-11 14:00:00,
2013-10-11 10:05:00,83.8,71.8,30.00,NE,36,3.0,9.0,67,0.00,,,0.00,494.0,meteohub,2013-10-11 14:05:00,
2013-10-11 10:10:00,83.7,71.6,30.00,NE,46,4.0,9.0,67,0.00,,,0.00,515.0,meteohub,2013-10-11 14:10:00,
2013-10-11 10:15:00,83.5,71.8,30.00,ENE,69,3.0,9.0,68,0.00,,,0.00,527.0,meteohub,2013-10-11 14:15:00,
2013-10-11 10:20:00,84.6,72.0,30.00,NNE,28,5.0,9.0,66,0.00,,,0.00,541.0,meteohub,2013-10-11 14:20:00,
2013-10-11 10:25:00,85.1,71.6,30.00,NE,37,6.0,9.0,64,0.00,,,0.00,559.0,meteohub,2013-10-11 14:25:00,
2013-10-11 10:30:00,84.7,70.7,30.00,NNE,24,8.0,12.0,63,0.00,,,0.00,568.0,meteohub,2013-10-11 14:30:00,
2013-10-11 10:35:00,84.7,70.3,30.00,ENE,71,8.0,12.0,62,0.00,,,0.00,585.0,meteohub,2013-10-11 14:35:00,
2013-10-11 10:41:00,84.7,70.7,30.00,NE,41,5.0,12.0,63,0.00,,,0.00,596.0,meteohub,2013-10-11 14:41:00,
2013-10-11 10:46:00,84.9,70.5,30.00,NE,51,6.0,13.0,62,0.00,,,0.00,608.0,meteohub,2013-10-11 14:46:00,
2013-10-11 10:52:00,84.9,70.5,-100.00,ENE,60,5.0,13.0,62,0.00,,,0.00,624.0,meteohub,2013-10-11 14:52:00,
2013-10-11 10:57:00,84.9,70.9,30.00,NE,39,9.0,11.0,63,0.00,,,0.00,645.0,meteohub,2013-10-11 14:57:00,
2013-10-11 11:02:00,84.9,70.9,30.00,NE,39,8.0,10.0,63,0.00,,,0.00,647.0,meteohub,2013-10-11 15:02:00,
2013-10-11 11:07:00,85.5,70.5,30.00,NE,36,8.0,11.0,61,0.00,,,0.00,659.0,meteohub,2013-10-11 15:07:00,
2013-10-11 11:12:00,85.1,69.6,30.00,NE,46,3.0,11.0,60,0.00,,,0.00,666.0,meteohub,2013-10-11 15:12:00,
2013-10-11 11:17:00,85.3,69.8,30.00,NNE,17,6.0,12.0,60,0.00,,,0.00,680.0,meteohub,2013-10-11 15:17:00,
2013-10-11 11:22:00,85.5,70.9,30.00,North,11,8.0,13.0,62,0.00,,,0.00,693.0,meteohub,2013-10-11 15:22:00,
2013-10-11 11:27:00,85.8,70.3,30.00,ENE,57,7.0,13.0,60,0.00,,,0.00,705.0,meteohub,2013-10-11 15:27:00,
2013-10-11 11:32:00,86.2,70.2,30.00,ENE,63,9.0,13.0,59,0.00,,,0.00,715.0,meteohub,2013-10-11 15:32:00,
2013-10-11 11:37:00,85.6,69.6,30.00,NE,55,6.0,13.0,59,0.00,,,0.00,722.0,meteohub,2013-10-11 15:37:00,
2013-10-11 11:42:00,85.3,69.8,30.00,ENE,57,8.0,12.0,60,0.00,,,0.00,726.0,meteohub,2013-10-11 15:42:00,
2013-10-11 11:47:00,85.6,69.6,30.00,NE,38,8.0,12.0,59,0.00,,,0.00,735.0,meteohub,2013-10-11 15:47:00,
2013-10-11 11:52:00,86.5,70.0,30.00,ENE,60,4.0,11.0,58,0.00,,,0.00,759.0,meteohub,2013-10-11 15:52:00,
2013-10-11 11:57:00,85.6,69.6,30.00,NNE,22,6.0,11.0,59,0.00,,,0.00,803.0,meteohub,2013-10-11 15:57:00,
2013-10-11 12:03:00,86.7,69.1,30.00,NNE,33,9.0,15.0,56,0.00,,,0.00,775.0,meteohub,2013-10-11 16:03:00,
2013-10-11 12:08:00,87.1,68.9,30.00,ENE,65,5.0,15.0,55,0.00,,,0.00,782.0,meteohub,2013-10-11 16:08:00,
2013-10-11 12:13:00,86.5,68.9,30.00,ENE,69,4.0,15.0,56,0.00,,,0.00,777.0,meteohub,2013-10-11 16:13:00,
2013-10-11 12:18:00,86.5,69.4,30.00,NE,43,6.0,11.0,57,0.00,,,0.00,802.0,meteohub,2013-10-11 16:18:00,
2013-10-11 12:23:00,86.5,68.4,30.00,NNE,26,7.0,12.0,55,0.00,,,0.00,838.0,meteohub,2013-10-11 16:23:00,
2013-10-11 12:28:00,86.9,68.2,30.00,ENE,58,2.0,12.0,54,0.00,,,0.00,805.0,meteohub,2013-10-11 16:28:00,
2013-10-11 12:33:00,86.9,69.3,29.99,NE,35,3.0,12.0,56,0.00,,,0.00,805.0,meteohub,2013-10-11 16:33:00,
2013-10-11 12:38:00,86.9,69.8,29.99,ENE,59,8.0,11.0,57,0.00,,,0.00,819.0,meteohub,2013-10-11 16:38:00,
2013-10-11 12:43:00,86.9,69.3,29.99,ENE,75,8.0,11.0,56,0.00,,,0.00,798.0,meteohub,2013-10-11 16:43:00,
2013-10-11 12:48:00,86.4,69.3,29.99,NE,47,6.0,13.0,57,0.00,,,0.00,814.0,meteohub,2013-10-11 16:48:00,
2013-10-11 12:53:00,86.9,69.8,29.99,North,0,9.0,13.0,57,0.00,,,0.00,807.0,meteohub,2013-10-11 16:53:00,
2013-10-11 12:58:00,87.1,68.9,29.99,NNE,15,9.0,13.0,55,0.00,,,0.00,805.0,meteohub,2013-10-11 16:58:00,
2013-10-11 13:03:00,86.7,68.5,29.98,ENE,78,7.0,13.0,55,0.00,,,0.00,810.0,meteohub,2013-10-11 17:03:00,
2013-10-11 13:08:00,86.4,68.7,29.98,ENE,67,7.0,14.0,56,0.00,,,0.00,828.0,meteohub,2013-10-11 17:08:00,
2013-10-11 13:13:00,87.1,70.0,29.98,NNE,18,7.0,14.0,57,0.00,,,0.00,823.0,meteohub,2013-10-11 17:13:00,
2013-10-11 13:18:00,86.5,69.4,29.97,ESE,110,1.0,14.0,57,0.00,,,0.00,823.0,meteohub,2013-10-11 17:18:00,
2013-10-11 13:23:00,86.5,69.4,29.97,ENE,67,9.0,11.0,57,0.00,,,0.00,851.0,meteohub,2013-10-11 17:23:00,
2013-10-11 13:28:00,86.4,68.7,29.97,NE,34,6.0,11.0,56,0.00,,,0.00,851.0,meteohub,2013-10-11 17:28:00,
2013-10-11 13:33:00,86.5,68.0,29.96,ENE,61,8.0,14.0,54,0.00,,,0.00,819.0,meteohub,2013-10-11 17:33:00,
2013-10-11 13:38:00,86.7,69.6,29.96,NNE,32,5.0,14.0,57,0.00,,,0.00,870.0,meteohub,2013-10-11 17:38:00,
2013-10-11 13:43:00,87.4,68.7,29.96,North,5,5.0,14.0,54,0.00,,,0.00,854.0,meteohub,2013-10-11 17:43:00,
2013-10-11 13:48:00,88.0,69.3,29.96,NNE,15,9.0,14.0,54,0.00,,,0.00,879.0,meteohub,2013-10-11 17:48:00,
2013-10-11 13:53:00,86.7,68.0,29.96,NNE,19,8.0,14.0,54,0.00,,,0.00,105.0,meteohub,2013-10-11 17:53:00,
2013-10-11 13:58:00,86.2,69.1,29.96,ENE,65,4.0,12.0,57,0.00,,,0.00,860.0,meteohub,2013-10-11 17:58:00,
2013-10-11 14:03:00,87.1,70.0,29.96,NNE,18,6.0,12.0,57,0.00,,,0.00,912.0,meteohub,2013-10-11 18:03:00,
2013-10-11 14:08:00,86.7,68.5,29.96,North,0,6.0,12.0,55,0.00,,,0.00,895.0,meteohub,2013-10-11 18:08:00,
2013-10-11 14:13:00,87.3,69.6,29.95,ENE,67,4.0,13.0,56,0.00,,,0.00,918.0,meteohub,2013-10-11 18:13:00,
2013-10-11 14:18:00,86.5,68.9,29.95,ENE,57,10.0,13.0,56,0.00,,,0.00,875.0,meteohub,2013-10-11 18:18:00,
2013-10-11 14:23:00,86.9,69.3,29.95,NE,51,4.0,14.0,56,0.00,,,0.00,881.0,meteohub,2013-10-11 18:23:00,
2013-10-11 14:28:00,86.9,69.3,29.95,NE,47,6.0,14.0,56,0.00,,,0.00,846.0,meteohub,2013-10-11 18:28:00,
2013-10-11 14:33:00,86.7,69.6,29.95,NNE,22,9.0,14.0,57,0.00,,,0.00,807.0,meteohub,2013-10-11 18:33:00,
2013-10-11 14:38:00,86.5,69.4,29.94,ENE,62,4.0,13.0,57,0.00,,,0.00,837.0,meteohub,2013-10-11 18:38:00,
2013-10-11 14:43:00,87.1,69.4,29.94,ESE,109,5.0,13.0,56,0.00,,,0.00,838.0,meteohub,2013-10-11 18:43:00,
2013-10-11 14:48:00,86.5,69.4,29.94,ENE,57,3.0,13.0,57,0.00,,,0.00,835.0,meteohub,2013-10-11 18:48:00,
2013-10-11 14:53:00,86.5,69.4,29.94,NNE,27,6.0,14.0,57,0.00,,,0.00,735.0,meteohub,2013-10-11 18:53:00,
2013-10-11 14:58:00,86.2,68.7,29.94,East,89,3.0,14.0,56,0.00,,,0.00,696.0,meteohub,2013-10-11 18:58:00,
2013-10-11 15:03:00,86.0,69.4,29.94,East,91,8.0,14.0,58,0.00,,,0.00,705.0,meteohub,2013-10-11 19:03:00,
2013-10-11 15:08:00,86.5,69.4,29.94,NE,39,8.0,14.0,57,0.00,,,0.00,715.0,meteohub,2013-10-11 19:08:00,
2013-10-11 15:13:00,86.4,69.3,29.94,East,88,8.0,14.0,57,0.00,,,0.00,671.0,meteohub,2013-10-11 19:13:00,
2013-10-11 15:18:00,86.2,69.1,29.94,NE,35,8.0,13.0,57,0.00,,,0.00,666.0,meteohub,2013-10-11 19:18:00,
2013-10-11 15:24:00,86.5,69.4,29.94,ENE,57,10.0,14.0,57,0.00,,,0.00,633.0,meteohub,2013-10-11 19:24:00,
2013-10-11 15:29:00,86.2,69.1,29.94,ENE,59,9.0,14.0,57,0.00,,,0.00,601.0,meteohub,2013-10-11 19:29:00,
2013-10-11 15:34:00,85.8,69.8,29.94,ENE,58,7.0,13.0,59,0.00,,,0.00,599.0,meteohub,2013-10-11 19:34:00,
2013-10-11 15:39:00,85.8,69.3,29.94,ENE,65,8.0,13.0,58,0.00,,,0.00,605.0,meteohub,2013-10-11 19:39:00,
2013-10-11 15:44:00,85.5,69.1,29.94,East,90,8.0,13.0,58,0.00,,,0.00,663.0,meteohub,2013-10-11 19:44:00,
2013-10-11 15:49:00,84.9,68.5,29.94,ENE,60,12.0,15.0,58,0.00,,,0.00,663.0,meteohub,2013-10-11 19:49:00,
2013-10-11 15:54:00,84.7,68.9,29.94,ENE,67,9.0,15.0,59,0.00,,,0.00,610.0,meteohub,2013-10-11 19:54:00,
2013-10-11 15:59:00,84.7,68.9,29.94,NE,55,8.0,15.0,59,0.00,,,0.00,120.0,meteohub,2013-10-11 19:59:00,
2013-10-11 16:04:00,84.6,69.6,29.94,NE,43,11.0,15.0,61,0.00,,,0.00,599.0,meteohub,2013-10-11 20:04:00,
2013-10-11 16:09:00,84.7,69.3,29.94,East,82,5.0,15.0,60,0.00,,,0.00,545.0,meteohub,2013-10-11 20:09:00,
2013-10-11 16:14:00,84.7,68.9,29.94,ENE,71,8.0,15.0,59,0.00,,,0.00,406.0,meteohub,2013-10-11 20:14:00,
2013-10-11 16:19:00,84.4,68.9,29.94,NE,51,6.0,16.0,60,0.00,,,0.00,561.0,meteohub,2013-10-11 20:19:00,
2013-10-11 16:24:00,84.4,68.9,29.94,ENE,67,5.0,16.0,60,0.00,,,0.00,520.0,meteohub,2013-10-11 20:24:00,
2013-10-11 16:29:00,84.7,69.3,29.94,NE,39,7.0,16.0,60,0.00,,,0.00,506.0,meteohub,2013-10-11 20:29:00,
2013-10-11 16:34:00,84.7,68.9,29.94,NE,53,9.0,14.0,59,0.00,,,0.00,506.0,meteohub,2013-10-11 20:34:00,
2013-10-11 16:39:00,84.7,68.4,29.94,NE,47,7.0,14.0,58,0.00,,,0.00,485.0,meteohub,2013-10-11 20:39:00,
2013-10-11 16:44:00,84.2,68.4,29.94,NE,34,12.0,14.0,59,0.00,,,0.00,436.0,meteohub,2013-10-11 20:44:00,
2013-10-11 16:49:00,83.8,68.9,29.94,East,90,7.0,14.0,61,0.00,,,0.00,374.0,meteohub,2013-10-11 20:49:00,
2013-10-11 16:54:00,83.8,68.5,29.94,East,88,5.0,13.0,60,0.00,,,0.00,357.0,meteohub,2013-10-11 20:54:00,
2013-10-11 16:59:00,84.0,69.1,29.94,ENE,74,10.0,13.0,61,0.00,,,0.00,346.0,meteohub,2013-10-11 20:59:00,
2013-10-11 17:04:00,83.8,68.5,29.93,NE,51,10.0,15.0,60,0.00,,,0.00,313.0,meteohub,2013-10-11 21:04:00,
2013-10-11 17:09:00,83.7,68.7,29.93,East,85,6.0,15.0,61,0.00,,,0.00,299.0,meteohub,2013-10-11 21:09:00,
2013-10-11 17:14:00,83.7,68.7,29.93,ENE,67,9.0,15.0,61,0.00,,,0.00,281.0,meteohub,2013-10-11 21:14:00,
2013-10-11 17:19:00,83.7,68.7,29.93,East,84,10.0,15.0,61,0.00,,,0.00,265.0,meteohub,2013-10-11 21:19:00,
2013-10-11 17:24:00,83.3,68.4,29.93,East,85,8.0,15.0,61,0.00,,,0.00,248.0,meteohub,2013-10-11 21:24:00,
2013-10-11 17:29:00,83.1,68.4,29.93,NE,48,12.0,15.0,61,0.00,,,0.00,232.0,meteohub,2013-10-11 21:29:00,
2013-10-11 17:34:00,83.1,68.4,29.93,ENE,66,8.0,13.0,61,0.00,,,0.00,216.0,meteohub,2013-10-11 21:34:00,
2013-10-11 17:39:00,82.9,68.2,29.93,NE,48,5.0,13.0,61,0.00,,,0.00,193.0,meteohub,2013-10-11 21:39:00,
2013-10-11 17:44:00,82.9,68.5,29.93,ENE,64,10.0,14.0,62,0.00,,,0.00,172.0,meteohub,2013-10-11 21:44:00,
2013-10-11 17:50:00,82.8,68.0,29.93,NE,36,11.0,14.0,61,0.00,,,0.00,153.0,meteohub,2013-10-11 21:50:00,
2013-10-11 17:55:00,82.4,68.0,29.94,ENE,59,10.0,14.0,62,0.00,,,0.00,135.0,meteohub,2013-10-11 21:55:00,
2013-10-11 18:00:00,82.2,68.4,29.94,ENE,69,14.0,14.0,63,0.00,,,0.00,113.0,meteohub,2013-10-11 22:00:00,
2013-10-11 18:05:00,82.0,68.2,29.94,NNE,23,7.0,14.0,63,0.00,,,0.00,95.0,meteohub,2013-10-11 22:05:00,
2013-10-11 18:10:00,82.0,68.2,29.94,NE,51,6.0,14.0,63,0.00,,,0.00,79.0,meteohub,2013-10-11 22:10:00,
2013-10-11 18:15:00,81.9,68.5,29.94,ENE,70,5.0,14.0,64,0.00,,,0.00,63.0,meteohub,2013-10-11 22:15:00,
2013-10-11 18:20:00,81.7,68.4,29.94,ENE,78,8.0,13.0,64,0.00,,,0.00,49.0,meteohub,2013-10-11 22:20:00,
2013-10-11 18:25:00,81.5,67.6,29.94,ENE,58,8.0,11.0,63,0.00,,,0.00,35.0,meteohub,2013-10-11 22:25:00,
2013-10-11 18:30:00,81.3,68.0,29.94,NE,50,6.0,11.0,64,0.00,,,0.00,18.0,meteohub,2013-10-11 22:30:00,
2013-10-11 18:35:00,81.1,68.7,29.94,ENE,66,8.0,11.0,66,0.00,,,0.00,14.0,meteohub,2013-10-11 22:35:00,
2013-10-11 18:40:00,81.0,68.5,29.94,ENE,77,2.0,11.0,66,0.00,,,0.00,12.0,meteohub,2013-10-11 22:40:00,
2013-10-11 18:45:00,80.8,68.7,29.94,East,90,5.0,11.0,67,0.00,,,0.00,11.0,meteohub,2013-10-11 22:45:00,
2013-10-11 18:50:00,80.4,68.5,29.94,ENE,63,7.0,10.0,67,0.00,,,0.00,7.0,meteohub,2013-10-11 22:50:00,
2013-10-11 18:55:00,80.2,68.4,29.94,ENE,65,4.0,11.0,67,0.00,,,0.00,5.0,meteohub,2013-10-11 22:55:00,
2013-10-11 19:00:00,80.1,68.2,29.94,East,93,5.0,11.0,67,0.00,,,0.00,0.0,meteohub,2013-10-11 23:00:00,
2013-10-11 19:05:00,79.9,67.5,29.94,ENE,72,2.0,11.0,66,0.00,,,0.00,0.0,meteohub,2013-10-11 23:05:00,
2013-10-11 19:10:00,79.9,68.0,29.94,ENE,74,7.0,8.0,67,0.00,,,0.00,0.0,meteohub,2013-10-11 23:10:00,
2013-10-11 19:15:00,79.5,67.6,29.94,ENE,74,4.0,8.0,67,0.00,,,0.00,0.0,meteohub,2013-10-11 23:15:00,
2013-10-11 19:20:00,79.5,67.6,29.94,ENE,58,7.0,8.0,67,0.00,,,0.00,0.0,meteohub,2013-10-11 23:20:00,
2013-10-11 19:25:00,79.3,67.5,29.94,ENE,78,2.0,9.0,67,0.00,,,0.00,0.0,meteohub,2013-10-11 23:25:00,
2013-10-11 19:30:00,79.3,67.5,29.94,ENE,70,3.0,9.0,67,0.00,,,0.00,0.0,meteohub,2013-10-11 23:30:00,
2013-10-11 19:35:00,79.2,67.6,29.94,ENE,63,5.0,8.0,68,0.00,,,0.00,0.0,meteohub,2013-10-11 23:35:00,
2013-10-11 19:40:00,79.0,67.5,29.95,ENE,70,3.0,7.0,68,0.00,,,0.00,0.0,meteohub,2013-10-11 23:40:00,
2013-10-11 19:45:00,78.8,67.3,29.95,ENE,73,3.0,5.0,68,0.00,,,0.00,0.0,meteohub,2013-10-11 23:45:00,
2013-10-11 19:50:00,78.6,67.6,29.95,ENE,73,4.0,7.0,69,0.00,,,0.00,0.0,meteohub,2013-10-11 23:50:00,
2013-10-11 19:55:00,78.6,67.6,29.95,ENE,74,1.0,7.0,69,0.00,,,0.00,0.0,meteohub,2013-10-11 23:55:00,
2013-10-11 20:00:00,78.4,67.5,29.95,East,84,0.0,7.0,69,0.00,,,0.00,0.0,meteohub,2013-10-12 00:00:00,
2013-10-11 20:05:00,78.3,67.6,29.96,East,85,1.0,5.0,70,0.00,,,0.00,0.0,meteohub,2013-10-12 00:05:00,
2013-10-11 20:10:00,78.3,67.6,29.96,East,84,0.0,5.0,70,0.00,,,0.00,0.0,meteohub,2013-10-12 00:10:00,
2013-10-11 20:15:00,78.3,67.6,29.96,East,84,1.0,5.0,70,0.00,,,0.00,0.0,meteohub,2013-10-12 00:15:00,
2013-10-11 20:20:00,78.3,67.6,29.96,East,85,1.0,5.0,70,0.00,,,0.00,0.0,meteohub,2013-10-12 00:20:00,
2013-10-11 20:25:00,78.1,67.5,29.96,East,85,5.0,5.0,70,0.00,,,0.00,0.0,meteohub,2013-10-12 00:25:00,
2013-10-11 20:30:00,78.1,67.5,29.96,ENE,78,0.0,5.0,70,0.00,,,0.00,0.0,meteohub,2013-10-12 00:30:00,
2013-10-11 20:35:00,77.9,67.8,29.96,ENE,78,2.0,5.0,71,0.00,,,0.00,0.0,meteohub,2013-10-12 00:35:00,
2013-10-11 20:40:00,77.7,67.6,29.97,ENE,78,0.0,5.0,71,0.00,,,0.00,0.0,meteohub,2013-10-12 00:40:00,
2013-10-11 20:45:00,77.7,67.6,29.97,ENE,78,2.0,4.0,71,0.00,,,0.00,0.0,meteohub,2013-10-12 00:45:00,
2013-10-11 20:50:00,77.7,67.6,29.96,East,79,3.0,5.0,71,0.00,,,0.00,0.0,meteohub,2013-10-12 00:50:00,
2013-10-11 20:55:00,77.7,67.6,29.97,East,80,1.0,5.0,71,0.00,,,0.00,0.0,meteohub,2013-10-12 00:55:00,
2013-10-11 21:00:00,77.7,67.6,29.97,East,80,1.0,5.0,71,0.00,,,0.00,0.0,meteohub,2013-10-12 01:00:00,
2013-10-11 21:05:00,77.7,67.6,29.97,East,94,0.0,5.0,71,0.00,,,0.00,0.0,meteohub,2013-10-12 01:05:00,
2013-10-11 21:10:00,77.5,67.5,29.97,East,93,0.0,5.0,71,0.00,,,0.00,0.0,meteohub,2013-10-12 01:10:00,
2013-10-11 21:15:00,77.5,67.5,29.97,East,92,1.0,5.0,71,0.00,,,0.00,0.0,meteohub,2013-10-12 01:15:00,
2013-10-11 21:21:00,77.4,67.3,29.97,East,92,2.0,5.0,71,0.00,,,0.00,0.0,meteohub,2013-10-12 01:21:00,
2013-10-11 21:26:00,77.2,67.1,29.98,East,92,0.0,5.0,71,0.00,,,0.00,0.0,meteohub,2013-10-12 01:26:00,
2013-10-11 21:31:00,77.2,67.5,29.98,East,92,2.0,3.0,72,0.00,,,0.00,0.0,meteohub,2013-10-12 01:31:00,
2013-10-11 21:36:00,77.0,67.3,29.98,East,92,2.0,3.0,72,0.00,,,0.00,0.0,meteohub,2013-10-12 01:36:00,
2013-10-11 21:41:00,77.0,67.3,29.98,East,91,2.0,3.0,72,0.00,,,0.00,0.0,meteohub,2013-10-12 01:41:00,
2013-10-11 21:46:00,77.2,67.5,29.98,East,87,3.0,3.0,72,0.00,,,0.00,0.0,meteohub,2013-10-12 01:46:00,
2013-10-11 21:51:00,77.2,67.5,29.98,East,87,2.0,5.0,72,0.00,,,0.00,0.0,meteohub,2013-10-12 01:51:00,
2013-10-11 21:56:00,77.2,67.5,29.98,East,84,0.0,6.0,72,0.00,,,0.00,0.0,meteohub,2013-10-12 01:56:00,
2013-10-11 22:01:00,77.0,67.3,29.98,East,84,1.0,6.0,72,0.00,,,0.00,0.0,meteohub,2013-10-12 02:01:00,
2013-10-11 22:06:00,77.0,67.3,29.98,East,84,1.0,6.0,72,0.00,,,0.00,0.0,meteohub,2013-10-12 02:06:00,
2013-10-11 22:11:00,77.0,66.9,29.98,East,84,3.0,5.0,71,0.00,,,0.00,0.0,meteohub,2013-10-12 02:11:00,
2013-10-11 22:16:00,77.0,66.9,29.98,East,84,1.0,5.0,71,0.00,,,0.00,0.0,meteohub,2013-10-12 02:16:00,
2013-10-11 22:21:00,77.0,67.3,29.98,East,84,0.0,5.0,72,0.00,,,0.00,0.0,meteohub,2013-10-12 02:21:00,
2013-10-11 22:26:00,76.8,67.1,29.99,East,85,0.0,3.0,72,0.00,,,0.00,0.0,meteohub,2013-10-12 02:26:00,
2013-10-11 22:31:00,76.6,66.9,29.99,East,90,0.0,3.0,72,0.00,,,0.00,0.0,meteohub,2013-10-12 02:31:00,
2013-10-11 22:36:00,76.6,67.3,29.99,East,90,0.0,3.0,73,0.00,,,0.00,0.0,meteohub,2013-10-12 02:36:00,
2013-10-11 22:41:00,76.5,67.1,29.99,East,90,0.0,3.0,73,0.00,,,0.00,0.0,meteohub,2013-10-12 02:41:00,
2013-10-11 22:46:00,76.5,67.1,29.99,East,90,0.0,3.0,73,0.00,,,0.00,0.0,meteohub,2013-10-12 02:46:00,
2013-10-11 22:51:00,76.3,67.5,29.98,East,90,1.0,1.0,74,0.00,,,0.00,0.0,meteohub,2013-10-12 02:51:00,
2013-10-11 22:56:00,75.9,67.1,29.99,East,90,0.0,1.0,74,0.00,,,0.00,0.0,meteohub,2013-10-12 02:56:00,
2013-10-11 23:01:00,75.7,67.3,29.98,East,90,0.0,1.0,75,0.00,,,0.00,0.0,meteohub,2013-10-12 03:01:00,
2013-10-11 23:06:00,75.7,66.9,29.98,East,90,0.0,1.0,74,0.00,,,0.00,0.0,meteohub,2013-10-12 03:06:00,
2013-10-11 23:11:00,75.9,67.1,29.98,East,90,1.0,2.0,74,0.00,,,0.00,0.0,meteohub,2013-10-12 03:11:00,
2013-10-11 23:16:00,75.9,67.1,29.98,East,90,0.0,2.0,74,0.00,,,0.00,0.0,meteohub,2013-10-12 03:16:00,
2013-10-11 23:21:00,75.9,67.1,29.98,East,90,0.0,2.0,74,0.00,,,0.00,0.0,meteohub,2013-10-12 03:21:00,
2013-10-11 23:26:00,75.7,66.9,29.98,East,90,0.0,1.0,74,0.00,,,0.00,0.0,meteohub,2013-10-12 03:26:00,
2013-10-11 23:31:00,75.6,67.1,29.98,East,91,1.0,2.0,75,0.00,,,0.00,0.0,meteohub,2013-10-12 03:31:00,
2013-10-11 23:36:00,75.0,66.9,29.98,East,91,0.0,3.0,76,0.00,,,0.00,0.0,meteohub,2013-10-12 03:36:00,
2013-10-11 23:41:00,75.0,66.9,29.97,East,91,0.0,3.0,76,0.00,,,0.00,0.0,meteohub,2013-10-12 03:41:00,
2013-10-11 23:46:00,75.4,67.3,29.97,East,91,0.0,3.0,76,0.00,,,0.00,0.0,meteohub,2013-10-12 03:46:00,
2013-10-11 23:51:00,75.2,67.1,29.97,East,91,1.0,3.0,76,0.00,,,0.00,0.0,meteohub,2013-10-12 03:51:00,
2013-10-11 23:56:00,75.0,66.9,29.97,East,91,1.0,2.0,76,0.00,,,0.00,0.0,meteohub,2013-10-12 03:56:00,